Time,TemperatureF,DewpointF,PressureIn,WindDirection,WindDirectionDegrees,WindSpeedMPH,WindSpeedGustMPH,Humidity,HourlyPrecipIn,Conditions,Clouds,dailyrainin,SolarRadiationWatts/m^2,SoftwareType,DateUTC
2013-06-13 00:02:00,64.0,47.0,-100.00,NNW,336,6.0,10.0,54,0.00,,,0.02,0.000000,,2013-06-13 05:02:00,
2013-06-13 00:33:00,61.0,47.0,-100.00,NNW,337,4.0,7.0,61,0.00,,,0.02,0.000000,,2013-06-13 05:33:00,
2013-06-13 00:43:00,61.0,47.0,-100.00,NNW,337,4.0,7.0,61,0.00,,,0.02,0.000000,,2013-06-13 05:43:00,
2013-06-13 00:53:00,61.0,47.0,-100.00,NNW,337,4.0,7.0,61,0.00,,,0.02,0.000000,,2013-06-13 05:53:00,
2013-06-13 01:02:00,61.0,47.0,-100.00,NNW,337,4.0,7.0,61,0.00,,,0.02,0.000000,,2013-06-13 06:02:00,
2013-06-13 01:33:00,59.0,47.0,-100.00,NNW,332,6.0,10.0,65,0.00,,,0.02,0.000000,,2013-06-13 06:33:00,
2013-06-13 01:44:00,59.0,47.0,-100.00,NNW,332,6.0,10.0,65,0.00,,,0.02,0.000000,,2013-06-13 06:44:00,
2013-06-13 01:52:00,59.0,47.0,-100.00,NNW,332,6.0,10.0,65,0.00,,,0.02,0.000000,,2013-06-13 06:52:00,
2013-06-13 02:01:00,59.0,47.0,-100.00,NNW,332,6.0,10.0,65,0.00,,,0.02,0.000000,,2013-06-13 07:01:00,
2013-06-13 02:33:00,58.0,47.0,-100.00,NNW,334,6.0,10.0,68,0.00,,,0.02,0.000000,,2013-06-13 07:33:00,
2013-06-13 02:42:00,58.0,47.0,-100.00,NNW,334,6.0,10.0,68,0.00,,,0.02,0.000000,,2013-06-13 07:42:00,
2013-06-13 02:52:00,58.0,47.0,-100.00,NNW,334,6.0,10.0,68,0.00,,,0.02,0.000000,,2013-06-13 07:52:00,
2013-06-13 03:01:00,58.0,47.0,-100.00,NNW,334,6.0,10.0,68,0.00,,,0.02,0.000000,,2013-06-13 08:01:00,
2013-06-13 03:32:00,57.0,48.0,-100.00,NNW,336,6.0,10.0,71,0.00,,,0.02,0.000000,,2013-06-13 08:32:00,
2013-06-13 03:43:00,57.0,48.0,-100.00,NNW,336,6.0,10.0,71,0.00,,,0.02,0.000000,,2013-06-13 08:43:00,
2013-06-13 03:52:00,57.0,48.0,-100.00,NNW,336,6.0,10.0,71,0.00,,,0.02,0.000000,,2013-06-13 08:52:00,
2013-06-13 04:02:00,57.0,48.0,-100.00,NNW,336,6.0,10.0,71,0.00,,,0.02,0.000000,,2013-06-13 09:02:00,
2013-06-13 04:32:00,55.0,49.0,-100.00,NNW,329,6.0,9.0,80,0.00,,,0.02,0.000000,,2013-06-13 09:32:00,
2013-06-13 04:42:00,55.0,49.0,-100.00,NNW,329,6.0,9.0,80,0.00,,,0.02,0.000000,,2013-06-13 09:42:00,
2013-06-13 04:52:00,55.0,49.0,-100.00,NNW,329,6.0,9.0,80,0.00,,,0.02,0.000000,,2013-06-13 09:52:00,
2013-06-13 05:01:00,55.0,49.0,-100.00,NNW,329,6.0,9.0,80,0.00,,,0.02,0.000000,,2013-06-13 10:01:00,
2013-06-13 05:33:00,54.0,49.0,-100.00,NNW,331,4.0,7.0,82,0.00,,,0.02,0.000000,,2013-06-13 10:33:00,
2013-06-13 05:43:00,54.0,49.0,-100.00,NNW,331,4.0,7.0,82,0.00,,,0.02,0.000000,,2013-06-13 10:43:00,
2013-06-13 05:53:00,54.0,49.0,-100.00,NNW,331,4.0,7.0,82,0.00,,,0.02,0.000000,,2013-06-13 10:53:00,
2013-06-13 06:02:00,54.0,49.0,-100.00,NNW,331,4.0,7.0,82,0.00,,,0.02,0.000000,,2013-06-13 11:02:00,
2013-06-13 06:32:00,54.0,48.0,-100.00,NNW,346,4.0,7.0,80,0.00,,,0.02,17.000000,,2013-06-13 11:32:00,
2013-06-13 06:42:00,54.0,48.0,-100.00,NNW,346,4.0,7.0,80,0.00,,,0.02,17.000000,,2013-06-13 11:42:00,
2013-06-13 06:52:00,54.0,48.0,-100.00,NNW,346,4.0,7.0,80,0.00,,,0.02,17.000000,,2013-06-13 11:52:00,
2013-06-13 07:01:00,54.0,48.0,-100.00,NNW,346,4.0,7.0,80,0.00,,,0.02,17.000000,,2013-06-13 12:01:00,
2013-06-13 07:35:00,60.0,51.0,-100.00,North,8,6.0,11.0,72,0.00,,,0.02,148.000000,,2013-06-13 12:35:00,
2013-06-13 07:43:00,60.0,51.0,-100.00,North,8,6.0,11.0,72,0.00,,,0.02,148.000000,,2013-06-13 12:43:00,
2013-06-13 07:52:00,60.0,51.0,-100.00,North,8,6.0,11.0,72,0.00,,,0.02,148.000000,,2013-06-13 12:52:00,
2013-06-13 08:01:00,60.0,51.0,-100.00,North,8,6.0,11.0,72,0.00,,,0.02,148.000000,,2013-06-13 13:01:00,
2013-06-13 08:33:00,63.0,52.0,-100.00,NNE,32,5.0,11.0,68,0.00,,,0.02,332.000000,,2013-06-13 13:33:00,
2013-06-13 08:43:00,63.0,52.0,-100.00,NNE,32,5.0,11.0,68,0.00,,,0.02,332.000000,,2013-06-13 13:43:00,
2013-06-13 08:53:00,63.0,52.0,-100.00,NNE,32,5.0,11.0,68,0.00,,,0.02,332.000000,,2013-06-13 13:53:00,
2013-06-13 09:02:00,63.0,52.0,-100.00,NNE,32,5.0,11.0,68,0.00,,,0.02,332.000000,,2013-06-13 14:02:00,
2013-06-13 09:33:00,66.0,53.0,-100.00,ENE,65,4.0,9.0,63,0.00,,,0.02,528.000000,,2013-06-13 14:33:00,
2013-06-13 09:43:00,66.0,53.0,-100.00,ENE,65,4.0,9.0,63,0.00,,,0.02,528.000000,,2013-06-13 14:43:00,
2013-06-13 09:53:00,66.0,53.0,-100.00,ENE,65,4.0,9.0,63,0.00,,,0.02,528.000000,,2013-06-13 14:53:00,
2013-06-13 10:02:00,66.0,53.0,-100.00,ENE,65,4.0,9.0,63,0.00,,,0.02,528.000000,,2013-06-13 15:02:00,
2013-06-13 10:33:00,70.0,55.0,-100.00,West,270,4.0,8.0,58,0.00,,,0.02,713.000000,,2013-06-13 15:33:00,
2013-06-13 11:33:00,71.0,55.0,-100.00,NE,50,6.0,16.0,57,0.00,,,0.02,792.000000,,2013-06-13 16:33:00,
2013-06-13 11:43:00,71.0,55.0,-100.00,NE,50,6.0,16.0,57,0.00,,,0.02,792.000000,,2013-06-13 16:43:00,
2013-06-13 11:53:00,71.0,55.0,-100.00,NE,50,6.0,16.0,57,0.00,,,0.02,792.000000,,2013-06-13 16:53:00,
2013-06-13 12:02:00,71.0,55.0,-100.00,NE,50,6.0,16.0,57,0.00,,,0.02,792.000000,,2013-06-13 17:02:00,
2013-06-13 13:33:00,74.0,54.0,-100.00,NE,49,7.0,12.0,49,0.00,,,0.00,875.000000,,2013-06-13 18:33:00,
2013-06-13 13:43:00,74.0,54.0,-100.00,NE,49,7.0,12.0,49,0.00,,,0.00,875.000000,,2013-06-13 18:43:00,
2013-06-13 13:52:00,74.0,54.0,-100.00,NE,49,7.0,12.0,49,0.00,,,0.00,875.000000,,2013-06-13 18:52:00,
2013-06-13 14:01:00,74.0,54.0,-100.00,NE,49,7.0,12.0,49,0.00,,,0.00,875.000000,,2013-06-13 19:01:00,
2013-06-13 14:33:00,76.0,52.0,-100.00,NNE,29,6.0,14.0,44,0.00,,,0.00,970.000000,,2013-06-13 19:33:00,
2013-06-13 14:43:00,76.0,52.0,-100.00,NNE,29,6.0,14.0,44,0.00,,,0.00,970.000000,,2013-06-13 19:43:00,
2013-06-13 14:53:00,76.0,52.0,-100.00,NNE,29,6.0,14.0,44,0.00,,,0.00,970.000000,,2013-06-13 19:53:00,
2013-06-13 15:01:00,76.0,52.0,-100.00,NNE,29,6.0,14.0,44,0.00,,,0.00,970.000000,,2013-06-13 20:01:00,
2013-06-13 15:33:00,76.0,52.0,-100.00,ENE,66,8.0,14.0,43,0.00,,,0.00,965.000000,,2013-06-13 20:33:00,
2013-06-13 15:44:00,76.0,52.0,-100.00,ENE,66,8.0,14.0,43,0.00,,,0.00,965.000000,,2013-06-13 20:44:00,
2013-06-13 15:53:00,76.0,52.0,-100.00,ENE,66,8.0,14.0,43,0.00,,,0.00,965.000000,,2013-06-13 20:53:00,
2013-06-13 16:02:00,76.0,52.0,-100.00,ENE,66,8.0,14.0,43,0.00,,,0.00,965.000000,,2013-06-13 21:02:00,
2013-06-13 16:34:00,77.0,53.0,-100.00,NE,50,7.0,16.0,43,0.00,,,0.00,854.000000,,2013-06-13 21:34:00,
2013-06-13 16:43:00,77.0,53.0,-100.00,NE,50,7.0,16.0,43,0.00,,,0.00,854.000000,,2013-06-13 21:43:00,
2013-06-13 16:52:00,77.0,53.0,-100.00,NE,50,7.0,16.0,43,0.00,,,0.00,854.000000,,2013-06-13 21:52:00,
2013-06-13 17:02:00,77.0,53.0,-100.00,NE,50,7.0,16.0,43,0.00,,,0.00,854.000000,,2013-06-13 22:02:00,
2013-06-13 17:33:00,77.0,51.0,-100.00,East,85,7.0,16.0,41,0.00,,,0.00,773.000000,,2013-06-13 22:33:00,
2013-06-13 17:43:00,77.0,51.0,-100.00,East,85,7.0,16.0,41,0.00,,,0.00,773.000000,,2013-06-13 22:43:00,
2013-06-13 17:52:00,77.0,51.0,-100.00,East,85,7.0,16.0,41,0.00,,,0.00,773.000000,,2013-06-13 22:52:00,
2013-06-13 18:02:00,77.0,51.0,-100.00,East,85,7.0,16.0,41,0.00,,,0.00,773.000000,,2013-06-13 23:02:00,
2013-06-13 18:32:00,76.0,52.0,-100.00,East,87,9.0,15.0,43,0.00,,,0.00,586.000000,,2013-06-13 23:32:00,
2013-06-13 18:43:00,76.0,52.0,-100.00,East,87,9.0,15.0,43,0.00,,,0.00,586.000000,,2013-06-13 23:43:00,
2013-06-13 18:52:00,76.0,52.0,-100.00,East,87,9.0,15.0,43,0.00,,,0.00,586.000000,,2013-06-13 23:52:00,
2013-06-13 19:01:00,76.0,52.0,-100.00,East,87,9.0,15.0,43,0.00,,,0.00,586.000000,,2013-06-14 00:01:00,
2013-06-13 19:34:00,76.0,51.0,-100.00,East,80,7.0,15.0,42,0.00,,,0.00,388.000000,,2013-06-14 00:34:00,
2013-06-13 19:43:00,76.0,51.0,-100.00,East,80,7.0,15.0,42,0.00,,,0.00,388.000000,,2013-06-14 00:43:00,
2013-06-13 19:53:00,76.0,51.0,-100.00,East,80,7.0,15.0,42,0.00,,,0.00,388.000000,,2013-06-14 00:53:00,
2013-06-13 20:01:00,76.0,51.0,-100.00,East,80,7.0,15.0,42,0.00,,,0.00,388.000000,,2013-06-14 01:01:00,
2013-06-13 20:33:00,73.0,51.0,-100.00,ENE,73,5.0,11.0,46,0.00,,,0.00,185.000000,,2013-06-14 01:33:00,
2013-06-13 20:43:00,73.0,51.0,-100.00,ENE,73,5.0,11.0,46,0.00,,,0.00,185.000000,,2013-06-14 01:43:00,
2013-06-13 20:52:00,73.0,51.0,-100.00,ENE,73,5.0,11.0,46,0.00,,,0.00,185.000000,,2013-06-14 01:52:00,
2013-06-13 21:02:00,73.0,51.0,-100.00,ENE,73,5.0,11.0,46,0.00,,,0.00,185.000000,,2013-06-14 02:02:00,
2013-06-13 21:33:00,67.0,53.0,-100.00,ENE,60,1.0,8.0,61,0.00,,,0.00,40.000000,,2013-06-14 02:33:00,
2013-06-13 21:43:00,67.0,53.0,-100.00,ENE,60,1.0,8.0,61,0.00,,,0.00,40.000000,,2013-06-14 02:43:00,
2013-06-13 21:53:00,67.0,53.0,-100.00,ENE,60,1.0,8.0,61,0.00,,,0.00,40.000000,,2013-06-14 02:53:00,
2013-06-13 22:02:00,67.0,53.0,-100.00,ENE,60,1.0,8.0,61,0.00,,,0.00,40.000000,,2013-06-14 03:02:00,
2013-06-13 22:34:00,64.0,50.0,-100.00,East,86,5.0,12.0,61,0.00,,,0.00,1.000000,,2013-06-14 03:34:00,
2013-06-13 22:43:00,64.0,50.0,-100.00,East,86,5.0,12.0,61,0.00,,,0.00,1.000000,,2013-06-14 03:43:00,
2013-06-13 22:53:00,64.0,50.0,-100.00,East,86,5.0,12.0,61,0.00,,,0.00,1.000000,,2013-06-14 03:53:00,
2013-06-13 23:01:00,64.0,50.0,-100.00,East,86,5.0,12.0,61,0.00,,,0.00,1.000000,,2013-06-14 04:01:00,
2013-06-13 23:33:00,61.0,50.0,-100.00,East,82,4.0,8.0,66,0.00,,,0.00,0.000000,,2013-06-14 04:33:00,
2013-06-13 23:43:00,61.0,50.0,-100.00,East,82,4.0,8.0,66,0.00,,,0.00,0.000000,,2013-06-14 04:43:00,
2013-06-13 23:53:00,61.0,50.0,-100.00,East,82,4.0,8.0,66,0.00,,,0.00,0.000000,,2013-06-14 04:53:00,